Time;durP1;ratioP1;P1;durP2;ratioP2;P2;SDS_P1;SDS_P2;PMS_P1;PMS_P2;Temp;Humidity;BMP_temperature;BMP_pressure;BME280_temperature;BME280_humidity;BME280_pressure;Samples;Min_cycle;Max_cycle;Signal;HPM_P1;HPM_P2
2022/07/26 04:01:21;;;;;;;3.07;2.77;;;17.90;99.90;;;;;;5537053;23;20515;-67
2022/07/26 04:03:47;;;;;;;2.83;2.60;;;18.00;99.90;;;;;;5006791;28;20475;-66
2022/07/26 04:06:15;;;;;;;5.97;3.00;;;18.00;99.90;;;;;;5001141;28;20496;-67
2022/07/26 04:08:41;;;;;;;3.30;2.67;;;18.00;99.90;;;;;;5009697;28;20953;-67
2022/07/26 04:11:08;;;;;;;4.57;3.00;;;18.00;99.90;;;;;;4997530;28;20504;-67
2022/07/26 04:13:35;;;;;;;10.13;3.17;;;18.00;99.90;;;;;;4988574;28;20481;-66
2022/07/26 04:16:02;;;;;;;12.13;3.00;;;18.00;99.90;;;;;;4990248;28;20471;-67
2022/07/26 04:18:30;;;;;;;5.17;2.87;;;18.00;99.90;;;;;;4990168;28;20523;-67
2022/07/26 04:20:57;;;;;;;5.33;3.50;;;18.10;99.90;;;;;;4989803;28;20541;-67
2022/07/26 04:23:24;;;;;;;3.00;2.80;;;18.10;99.90;;;;;;4988709;28;20934;-67
2022/07/26 04:25:50;;;;;;;3.33;3.10;;;18.10;99.90;;;;;;4986484;28;20480;-67
2022/07/26 04:28:17;;;;;;;4.67;2.77;;;18.20;99.90;;;;;;4989198;28;20472;-67
2022/07/26 04:30:44;;;;;;;4.17;3.20;;;18.20;99.90;;;;;;4990413;28;20481;-67
2022/07/26 04:33:11;;;;;;;4.00;2.97;;;18.20;99.90;;;;;;4989183;28;20477;-67
2022/07/26 04:35:39;;;;;;;5.30;3.13;;;18.30;99.90;;;;;;4989956;28;20964;-66
2022/07/26 04:38:05;;;;;;;5.33;2.70;;;18.30;99.90;;;;;;4989161;28;20574;-67
2022/07/26 04:40:33;;;;;;;3.53;3.23;;;18.60;99.90;;;;;;4989588;28;20489;-67
2022/07/26 04:43:00;;;;;;;3.13;2.90;;;19.00;99.90;;;;;;4980732;28;20473;-67
2022/07/26 04:45:28;;;;;;;3.80;2.47;;;19.50;99.90;;;;;;4990409;28;20576;-67
2022/07/26 04:47:55;;;;;;;2.53;2.30;;;19.80;99.90;;;;;;4988436;28;20477;-67
2022/07/26 04:50:23;;;;;;;7.47;3.70;;;20.10;99.90;;;;;;4986992;28;20467;-68
2022/07/26 04:52:52;;;;;;;5.03;3.23;;;20.60;99.90;;;;;;4990468;28;20472;-66
2022/07/26 04:55:19;;;;;;;3.23;2.30;;;21.10;99.90;;;;;;4989328;28;20483;-68
2022/07/26 04:57:47;;;;;;;4.73;2.40;;;21.60;99.90;;;;;;4990301;28;20996;-67
2022/07/26 05:00:16;;;;;;;4.67;2.40;;;21.90;99.90;;;;;;4989862;28;20550;-67
2022/07/26 05:02:42;;;;;;;6.60;2.00;;;22.00;99.90;;;;;;4987118;28;20470;-67
2022/07/26 05:05:09;;;;;;;5.20;2.43;;;22.20;99.90;;;;;;4990216;28;20528;-67
2022/07/26 05:07:40;;;;;;;3.73;2.33;;;22.30;99.90;;;;;;4985996;28;20786;-67
2022/07/26 05:10:09;;;;;;;3.33;2.73;;;22.20;99.90;;;;;;4992067;28;20978;-67
2022/07/26 05:12:36;;;;;;;4.70;2.60;;;22.30;99.90;;;;;;4993895;28;20466;-66
2022/07/26 05:15:04;;;;;;;2.77;2.53;;;22.40;99.90;;;;;;4990608;28;20501;-67
2022/07/26 05:17:31;;;;;;;4.63;2.77;;;22.40;99.90;;;;;;4993928;28;20860;-67
2022/07/26 05:19:58;;;;;;;4.70;2.40;;;22.40;99.90;;;;;;4991934;28;20471;-67
2022/07/26 05:22:24;;;;;;;3.60;2.80;;;22.50;99.90;;;;;;4993330;28;20514;-66
2022/07/26 05:24:51;;;;;;;5.67;3.33;;;22.30;99.90;;;;;;4993000;28;20467;-66
2022/07/26 05:27:19;;;;;;;6.83;3.00;;;21.90;99.90;;;;;;4993577;28;20547;-67
2022/07/26 05:29:47;;;;;;;4.30;3.40;;;21.60;99.90;;;;;;4992851;28;20481;-67
2022/07/26 05:32:14;;;;;;;5.23;3.20;;;21.30;99.90;;;;;;4991773;28;20491;-67
2022/07/26 05:34:41;;;;;;;5.00;3.23;;;21.10;99.90;;;;;;4990867;28;20487;-67
2022/07/26 05:37:08;;;;;;;3.70;3.20;;;20.80;99.90;;;;;;4993381;28;20609;-66
2022/07/26 05:39:35;;;;;;;6.50;3.33;;;20.60;99.90;;;;;;4992509;28;20493;-66
2022/07/26 05:42:02;;;;;;;7.70;4.23;;;20.50;99.90;;;;;;4990262;28;20504;-67
2022/07/26 05:44:30;;;;;;;3.57;3.20;;;20.40;99.90;;;;;;4991671;28;20474;-67
2022/07/26 05:46:56;;;;;;;5.13;3.40;;;20.40;99.90;;;;;;4988644;28;20491;-66
2022/07/26 05:49:24;;;;;;;5.60;3.40;;;20.30;99.90;;;;;;4990290;28;20471;-66
2022/07/26 05:51:51;;;;;;;4.90;3.40;;;20.30;99.90;;;;;;4987872;28;20487;-66
2022/07/26 05:54:19;;;;;;;5.93;3.40;;;20.30;99.90;;;;;;4991471;28;20475;-66
2022/07/26 05:56:46;;;;;;;7.37;3.60;;;20.20;99.90;;;;;;4991461;28;20546;-66
2022/07/26 05:59:13;;;;;;;4.27;3.90;;;20.20;99.90;;;;;;4990566;28;20525;-67
2022/07/26 06:01:41;;;;;;;5.70;3.20;;;20.20;99.90;;;;;;4990452;28;20558;-67
2022/07/26 06:04:09;;;;;;;6.53;3.53;;;20.10;99.90;;;;;;4984156;28;20541;-67
2022/07/26 06:06:35;;;;;;;4.47;4.07;;;20.10;99.90;;;;;;4991658;28;20600;-67
2022/07/26 06:09:03;;;;;;;4.17;3.60;;;20.10;99.90;;;;;;4990724;28;20477;-68
2022/07/26 06:11:29;;;;;;;4.53;3.27;;;20.20;99.90;;;;;;4992527;28;20486;-68
2022/07/26 06:13:56;;;;;;;3.97;3.53;;;20.20;99.90;;;;;;4989853;28;20494;-67
2022/07/26 06:16:23;;;;;;;5.10;4.30;;;20.30;99.90;;;;;;4992757;28;20482;-67
2022/07/26 06:18:51;;;;;;;4.33;3.53;;;20.70;99.90;;;;;;4990770;28;20526;-67
2022/07/26 06:21:17;;;;;;;4.07;3.77;;;20.90;99.90;;;;;;4987625;28;20873;-67
2022/07/26 06:23:44;;;;;;;4.10;3.80;;;21.20;99.90;;;;;;4986747;28;20980;-67
2022/07/26 06:26:11;;;;;;;5.73;3.97;;;21.60;99.90;;;;;;4994734;28;20565;-68
2022/07/26 06:28:38;;;;;;;5.40;4.90;;;22.20;99.90;;;;;;4985338;28;20501;-67
2022/07/26 06:31:05;;;;;;;5.23;3.60;;;22.20;99.90;;;;;;4984810;28;20501;-67
2022/07/26 06:33:32;;;;;;;4.07;3.60;;;22.10;99.90;;;;;;4993112;28;20469;-68
2022/07/26 06:36:00;;;;;;;5.20;4.20;;;22.30;99.90;;;;;;4986535;28;20470;-67
2022/07/26 06:38:27;;;;;;;4.13;3.50;;;23.10;99.90;;;;;;4991098;28;21177;-67
2022/07/26 06:40:53;;;;;;;4.33;4.03;;;23.70;99.90;;;;;;4989329;28;20490;-67
2022/07/26 06:43:20;;;;;;;5.40;3.70;;;23.50;99.90;;;;;;4990016;28;20521;-67
2022/07/26 06:45:48;;;;;;;5.03;4.63;;;23.40;99.90;;;;;;4987671;28;20463;-67
2022/07/26 06:48:14;;;;;;;4.00;3.80;;;22.90;99.90;;;;;;4990885;28;20212;-67
2022/07/26 06:50:41;;;;;;;6.07;4.63;;;22.40;99.90;;;;;;4990387;28;20485;-68
2022/07/26 06:53:09;;;;;;;4.50;4.03;;;22.20;99.90;;;;;;4991830;28;20979;-67
2022/07/26 06:55:36;;;;;;;4.00;3.70;;;22.30;99.90;;;;;;4992153;28;21000;-67
2022/07/26 06:58:02;;;;;;;4.23;4.00;;;22.30;99.90;;;;;;4991707;28;20693;-67
2022/07/26 07:00:29;;;;;;;5.63;4.40;;;22.20;99.90;;;;;;4989100;28;20481;-67
2022/07/26 07:02:56;;;;;;;5.77;5.23;;;22.00;99.90;;;;;;4990044;28;20465;-67
2022/07/26 07:05:22;;;;;;;6.57;6.07;;;21.80;99.90;;;;;;4988589;28;20503;-67
2022/07/26 07:07:49;;;;;;;7.03;4.13;;;21.40;99.90;;;;;;4988629;28;21047;-68
2022/07/26 07:10:17;;;;;;;4.50;2.80;;;20.60;99.90;;;;;;4989725;28;20470;-69
2022/07/26 07:12:44;;;;;;;4.33;2.77;;;19.20;99.90;;;;;;4983420;28;20520;-70
2022/07/26 07:15:11;;;;;;;2.77;2.30;;;18.50;99.90;;;;;;4990868;28;20768;-69
2022/07/26 07:17:38;;;;;;;4.17;2.20;;;18.10;99.90;;;;;;4983858;28;20966;-70
2022/07/26 07:20:06;;;;;;;2.60;2.20;;;17.80;99.90;;;;;;4990529;28;20478;-70
2022/07/26 07:22:33;;;;;;;4.47;2.80;;;17.70;99.90;;;;;;4991515;28;20485;-70
2022/07/26 07:25:00;;;;;;;2.93;2.83;;;17.70;99.90;;;;;;4990570;28;20591;-70
2022/07/26 07:27:28;;;;;;;5.37;3.70;;;17.70;99.90;;;;;;4991861;28;20985;-71
2022/07/26 07:29:55;;;;;;;3.90;3.60;;;17.90;99.90;;;;;;4989456;28;20481;-70
2022/07/26 07:32:22;;;;;;;5.13;3.10;;;18.00;99.90;;;;;;4986462;28;20986;-71
2022/07/26 07:34:49;;;;;;;5.60;3.37;;;18.10;99.90;;;;;;4989427;28;20475;-71
2022/07/26 07:37:16;;;;;;;2.77;2.40;;;18.50;99.90;;;;;;4990808;28;20472;-71
2022/07/26 07:39:43;;;;;;;4.20;2.43;;;19.30;99.90;;;;;;4990096;28;20483;-71
2022/07/26 07:42:09;;;;;;;2.20;2.20;;;19.80;99.90;;;;;;4990265;28;20487;-71
2022/07/26 07:44:37;;;;;;;2.87;1.80;;;20.20;99.90;;;;;;4988160;28;20874;-71
2022/07/26 07:47:05;;;;;;;2.30;1.80;;;20.70;99.90;;;;;;4990290;28;20555;-72
2022/07/26 07:49:31;;;;;;;2.20;2.13;;;21.20;99.90;;;;;;4990700;28;20464;-71
2022/07/26 07:51:58;;;;;;;1.50;1.40;;;21.40;99.90;;;;;;4991287;28;20859;-71
2022/07/26 07:54:25;;;;;;;8.90;1.70;;;21.60;99.90;;;;;;4990159;28;20610;-71
2022/07/26 07:56:54;;;;;;;1.43;1.40;;;22.00;99.90;;;;;;4988497;28;20545;-71
2022/07/26 07:59:21;;;;;;;4.80;1.80;;;22.30;99.90;;;;;;4989234;28;20468;-71
2022/07/26 08:01:50;;;;;;;5.47;2.30;;;22.90;99.90;;;;;;4985454;28;20490;-72
2022/07/26 08:04:16;;;;;;;1.50;1.47;;;23.00;99.90;;;;;;4988261;28;20467;-71
2022/07/26 08:06:44;;;;;;;1.90;1.80;;;22.80;99.90;;;;;;4989999;28;20514;-70
2022/07/26 08:09:10;;;;;;;2.13;1.37;;;22.90;99.90;;;;;;4988023;28;20479;-70
2022/07/26 08:11:37;;;;;;;2.60;1.50;;;23.00;99.90;;;;;;4982682;28;20491;-70
2022/07/26 08:14:03;;;;;;;1.60;1.50;;;23.10;99.90;;;;;;4987270;28;20483;-71
2022/07/26 08:16:30;;;;;;;1.40;1.17;;;22.90;99.90;;;;;;4981024;28;20574;-70
2022/07/26 08:18:58;;;;;;;2.20;1.20;;;22.50;99.90;;;;;;4989830;28;20537;-71
2022/07/26 08:21:25;;;;;;;1.20;1.07;;;22.20;99.90;;;;;;4985507;28;20497;-69
2022/07/26 08:23:52;;;;;;;1.30;1.00;;;21.80;99.90;;;;;;4989392;28;20477;-69
2022/07/26 08:26:18;;;;;;;1.20;1.20;;;21.80;99.90;;;;;;4986903;28;20480;-70
2022/07/26 08:28:45;;;;;;;1.20;1.10;;;21.80;99.90;;;;;;4986847;28;20477;-70
2022/07/26 08:31:12;;;;;;;1.30;0.83;;;21.60;99.90;;;;;;4981466;28;20493;-69
2022/07/26 08:33:38;;;;;;;0.93;0.90;;;21.50;99.90;;;;;;4982716;28;20541;-69
2022/07/26 08:36:07;;;;;;;1.80;0.90;;;21.20;99.90;;;;;;4991377;28;22384;-69
2022/07/26 08:38:33;;;;;;;0.73;0.67;;;21.20;99.90;;;;;;4993668;28;20880;-69
2022/07/26 08:41:00;;;;;;;0.73;0.70;;;20.90;99.90;;;;;;4990083;28;20850;-69
2022/07/26 08:43:27;;;;;;;1.07;0.90;;;20.70;99.90;;;;;;4992149;28;20475;-69
2022/07/26 08:45:59;;;;;;;1.90;0.77;;;20.60;99.90;;;;;;4993805;28;20477;-69
2022/07/26 08:48:26;;;;;;;0.83;0.53;;;20.80;99.90;;;;;;4986201;28;20490;-69
2022/07/26 08:50:54;;;;;;;1.50;0.90;;;20.70;99.90;;;;;;4994688;28;20484;-69
2022/07/26 08:53:23;;;;;;;0.30;0.30;;;20.50;99.90;;;;;;4991741;28;20478;-69
2022/07/26 08:55:50;;;;;;;0.63;0.50;;;20.30;99.90;;;;;;4993576;28;20913;-69
2022/07/26 08:58:16;;;;;;;0.43;0.43;;;20.00;99.90;;;;;;4993609;28;20498;-69
2022/07/26 09:00:44;;;;;;;1.33;0.53;;;20.00;99.90;;;;;;4990203;28;20502;-69
2022/07/26 09:03:24;;;;;;;1.23;0.37;;;20.00;99.90;;;;;;4992244;28;20780;-70
2022/07/26 09:05:53;;;;;;;1.03;0.43;;;20.00;99.90;;;;;;4991809;28;20528;-69
2022/07/26 09:08:26;;;;;;;0.50;0.50;;;20.00;99.90;;;;;;4990310;28;20494;-69
2022/07/26 09:10:53;;;;;;;0.60;0.60;;;20.00;99.90;;;;;;4993229;28;20538;-69
2022/07/26 09:13:22;;;;;;;0.80;0.67;;;20.00;99.90;;;;;;4988488;28;20476;-69
2022/07/26 09:15:48;;;;;;;0.50;0.50;;;20.20;99.90;;;;;;4992736;28;20617;-69
2022/07/26 09:18:29;;;;;;;0.73;0.50;;;20.40;99.90;;;;;;4981926;28;20530;-68
2022/07/26 09:20:56;;;;;;;1.50;0.60;;;20.40;99.90;;;;;;4992603;28;20998;-69
2022/07/26 09:23:24;;;;;;;0.53;0.50;;;20.60;99.90;;;;;;4991348;28;20482;-69
2022/07/26 09:25:50;;;;;;;0.83;0.83;;;20.60;99.90;;;;;;4990454;28;20501;-69
2022/07/26 09:28:25;;;;;;;1.40;0.60;;;20.50;99.90;;;;;;4989718;28;20552;-69
2022/07/26 09:30:53;;;;;;;0.70;0.70;;;20.40;99.90;;;;;;4989723;28;21074;-68
2022/07/26 09:33:20;;;;;;;1.13;0.60;;;20.50;99.90;;;;;;4988982;28;22417;-68
2022/07/26 09:36:01;;;;;;;0.70;0.57;;;20.40;99.90;;;;;;4990400;28;20528;-68
2022/07/26 09:38:39;;;;;;;2.23;0.70;;;20.40;99.90;;;;;;4986678;28;20902;-68
2022/07/26 09:41:18;;;;;;;1.43;0.67;;;20.40;99.90;;;;;;4989816;28;20998;-68
2022/07/26 09:43:44;;;;;;;1.60;0.60;;;20.30;99.90;;;;;;4990268;28;20491;-68
2022/07/26 09:46:11;;;;;;;1.03;0.50;;;20.40;99.90;;;;;;4989488;28;20477;-68
2022/07/26 09:48:38;;;;;;;0.80;0.80;;;20.50;99.90;;;;;;4991982;28;20490;-68
2022/07/26 09:51:05;;;;;;;0.77;0.67;;;20.80;99.90;;;;;;4990807;28;20591;-68
2022/07/26 09:53:40;;;;;;;0.50;0.50;;;21.00;99.90;;;;;;4986617;28;20468;-68
2022/07/26 09:56:07;;;;;;;2.20;0.90;;;21.20;99.90;;;;;;4992556;28;20566;-68
2022/07/26 09:58:35;;;;;;;2.23;0.60;;;21.30;99.90;;;;;;4992487;28;20570;-69
2022/07/26 10:01:03;;;;;;;0.87;0.40;;;21.20;99.90;;;;;;4991983;28;20511;-68
2022/07/26 10:03:30;;;;;;;0.87;0.43;;;21.10;99.90;;;;;;4993618;28;20463;-68
2022/07/26 10:05:57;;;;;;;1.60;0.63;;;21.10;99.90;;;;;;4993892;28;20497;-68
2022/07/26 10:08:25;;;;;;;0.90;0.90;;;20.70;99.90;;;;;;4995429;28;20483;-68
2022/07/26 10:11:00;;;;;;;0.90;0.60;;;20.60;99.90;;;;;;4994245;28;20490;-68
2022/07/26 10:13:29;;;;;;;1.20;0.80;;;20.60;99.90;;;;;;4992123;28;20475;-68
2022/07/26 10:15:56;;;;;;;0.97;0.50;;;20.60;99.90;;;;;;4992960;28;20459;-67
2022/07/26 10:18:42;;;;;;;3.10;0.50;;;20.30;99.90;;;;;;4995614;28;20840;-67
2022/07/26 10:21:20;;;;;;;0.67;0.67;;;20.00;99.90;;;;;;4990529;28;20572;-67
2022/07/26 10:23:48;;;;;;;2.00;0.70;;;19.80;99.90;;;;;;4991866;28;20960;-67
2022/07/26 10:26:39;;;;;;;0.50;0.50;;;19.60;99.90;;;;;;4990812;28;20484;-67
2022/07/26 10:29:27;;;;;;;0.80;0.60;;;19.70;99.90;;;;;;4983856;28;20491;-66
2022/07/26 10:32:14;;;;;;;0.90;0.50;;;19.70;99.90;;;;;;4987880;28;20567;-68
2022/07/26 10:34:41;;;;;;;1.17;0.40;;;19.90;99.90;;;;;;4988259;28;20536;-67
2022/07/26 10:37:10;;;;;;;0.87;0.50;;;19.90;99.90;;;;;;4991743;28;20469;-67
2022/07/26 10:39:38;;;;;;;1.07;1.00;;;19.90;99.90;;;;;;4991062;28;20493;-67
2022/07/26 10:42:09;;;;;;;4.67;1.50;;;20.30;99.90;;;;;;4991769;28;20572;-67
2022/07/26 10:44:40;;;;;;;2.00;0.90;;;20.50;99.90;;;;;;4986031;28;20483;-67
2022/07/26 10:47:18;;;;;;;0.73;0.60;;;20.10;99.90;;;;;;4990978;28;20523;-67
2022/07/26 10:49:55;;;;;;;1.20;0.77;;;19.70;99.90;;;;;;4981039;28;20867;-67
2022/07/26 10:52:25;;;;;;;0.60;0.60;;;19.70;99.90;;;;;;4986627;28;20997;-67
2022/07/26 10:55:17;;;;;;;1.17;0.80;;;19.80;99.90;;;;;;4989586;28;20528;-67
2022/07/26 10:57:47;;;;;;;0.97;0.70;;;20.00;99.90;;;;;;4987259;28;20545;-67
2022/07/26 11:00:18;;;;;;;1.40;0.63;;;20.10;99.90;;;;;;4990370;28;20657;-67
2022/07/26 11:02:48;;;;;;;0.80;0.80;;;20.20;99.90;;;;;;4983112;28;20870;-67
2022/07/26 11:05:17;;;;;;;0.60;0.60;;;20.40;99.90;;;;;;4987149;28;20479;-67
2022/07/26 11:07:56;;;;;;;0.90;0.90;;;20.50;99.90;;;;;;4982402;28;20497;-67
2022/07/26 11:10:28;;;;;;;3.17;1.00;;;20.50;99.90;;;;;;4985076;28;20489;-67
2022/07/26 11:13:04;;;;;;;0.90;0.90;;;20.50;99.90;;;;;;4986902;28;20556;-67
2022/07/26 11:15:31;;;;;;;2.73;1.10;;;20.60;99.90;;;;;;4988393;28;20536;-67
2022/07/26 11:18:09;;;;;;;1.00;0.90;;;20.80;99.90;;;;;;4984962;28;20471;-67
2022/07/26 11:20:36;;;;;;;2.20;1.17;;;20.60;99.90;;;;;;4984511;28;20483;-67
2022/07/26 11:23:03;;;;;;;0.80;0.80;;;20.60;99.90;;;;;;4988987;28;20485;-67
2022/07/26 11:25:30;;;;;;;1.13;1.13;;;20.50;99.90;;;;;;4989416;28;20943;-67
2022/07/26 11:28:03;;;;;;;1.07;0.80;;;20.50;99.90;;;;;;4988400;28;20486;-67
2022/07/26 11:30:30;;;;;;;0.73;0.63;;;20.50;99.90;;;;;;4989895;28;20474;-66
2022/07/26 11:32:58;;;;;;;1.00;1.00;;;20.10;99.90;;;;;;4983052;28;20484;-67
2022/07/26 11:35:25;;;;;;;0.73;0.67;;;19.80;99.90;;;;;;4987126;28;20472;-67
2022/07/26 11:37:54;;;;;;;1.50;0.70;;;19.70;99.90;;;;;;4988241;28;20913;-66
2022/07/26 11:40:41;;;;;;;1.53;0.80;;;19.70;99.90;;;;;;4982063;28;20783;-67
2022/07/26 11:43:09;;;;;;;0.60;0.40;;;19.80;99.90;;;;;;4988165;28;20477;-67
2022/07/26 11:45:36;;;;;;;1.03;0.70;;;20.00;99.90;;;;;;4983192;28;20475;-67
2022/07/26 11:48:05;;;;;;;3.70;0.60;;;20.10;99.90;;;;;;4983926;28;20570;-66
2022/07/26 11:50:32;;;;;;;1.73;0.80;;;20.30;99.90;;;;;;4983464;28;20484;-67
2022/07/26 11:52:58;;;;;;;1.43;0.97;;;20.50;99.90;;;;;;4983286;28;20471;-67
2022/07/26 11:55:26;;;;;;;0.63;0.63;;;20.60;99.90;;;;;;4988186;28;20481;-67
2022/07/26 11:57:53;;;;;;;2.83;0.87;;;20.60;99.90;;;;;;4988857;28;20595;-67
2022/07/26 12:00:22;;;;;;;2.97;0.80;;;20.90;99.90;;;;;;4990840;28;20517;-68
2022/07/26 12:02:49;;;;;;;2.37;1.20;;;21.10;99.90;;;;;;4988934;28;20911;-67
2022/07/26 12:05:18;;;;;;;1.03;0.67;;;21.00;99.90;;;;;;4988248;28;20475;-67
2022/07/26 12:07:55;;;;;;;2.90;0.70;;;20.80;99.90;;;;;;4989213;28;20490;-67
2022/07/26 12:10:22;;;;;;;1.23;0.90;;;20.70;99.90;;;;;;4987888;28;20505;-67
2022/07/26 12:12:50;;;;;;;2.03;1.00;;;20.70;99.90;;;;;;4985428;28;20472;-67
2022/07/26 12:15:16;;;;;;;2.07;0.80;;;20.60;99.90;;;;;;4985920;28;20533;-67
2022/07/26 12:20:36;;;;;;;1.27;0.60;;;20.70;99.90;;;;;;5079981;27;20565;-67
2022/07/26 12:23:04;;;;;;;0.87;0.80;;;20.80;99.90;;;;;;5066228;28;20456;-67
2022/07/26 12:25:31;;;;;;;1.60;0.83;;;20.90;99.90;;;;;;5063170;28;20483;-67
2022/07/26 12:27:58;;;;;;;1.50;1.50;;;21.00;99.90;;;;;;5066865;28;20564;-67
2022/07/26 12:30:25;;;;;;;1.07;0.67;;;21.10;99.90;;;;;;5065245;28;20491;-67
2022/07/26 12:32:53;;;;;;;1.20;1.10;;;21.20;99.90;;;;;;5065660;28;20563;-67
2022/07/26 12:35:31;;;;;;;3.60;0.80;;;21.10;99.90;;;;;;5064727;28;20468;-67
2022/07/26 12:37:59;;;;;;;0.80;0.80;;;21.00;99.90;;;;;;5063717;28;20521;-67
2022/07/26 12:40:27;;;;;;;1.10;1.03;;;21.10;99.90;;;;;;5065857;28;20487;-67
2022/07/26 12:42:56;;;;;;;1.80;1.00;;;21.20;99.90;;;;;;5065227;28;20518;-67
2022/07/26 12:45:26;;;;;;;1.33;1.23;;;21.30;99.90;;;;;;5067124;28;20514;-68
2022/07/26 12:47:55;;;;;;;2.93;1.20;;;21.30;99.90;;;;;;5066699;28;20480;-67
2022/07/26 12:50:24;;;;;;;3.83;1.40;;;21.40;99.90;;;;;;5065696;28;20471;-67
2022/07/26 12:52:51;;;;;;;2.63;1.17;;;21.30;99.90;;;;;;5065242;28;20482;-68
2022/07/26 12:55:20;;;;;;;1.30;1.07;;;21.20;99.90;;;;;;5064966;28;20472;-67
2022/07/26 12:57:48;;;;;;;1.80;0.90;;;21.00;99.90;;;;;;5066672;28;20491;-66
2022/07/26 13:00:16;;;;;;;2.33;1.10;;;21.00;99.90;;;;;;5065472;28;20523;-68
2022/07/26 13:02:44;;;;;;;1.40;1.30;;;20.90;99.90;;;;;;5064455;28;20560;-67
2022/07/26 13:05:11;;;;;;;2.40;1.40;;;20.70;99.90;;;;;;5061555;28;20525;-68
2022/07/26 13:07:38;;;;;;;2.20;1.17;;;20.60;99.90;;;;;;5062919;28;20858;-68
2022/07/26 13:10:07;;;;;;;2.00;1.60;;;20.50;99.90;;;;;;5059732;28;20464;-67
2022/07/26 13:12:36;;;;;;;1.13;1.13;;;20.60;99.90;;;;;;5063648;28;20497;-68
2022/07/26 13:15:03;;;;;;;4.57;1.43;;;20.70;99.90;;;;;;5059043;28;20471;-67
2022/07/26 13:17:30;;;;;;;4.17;1.10;;;20.70;99.90;;;;;;5063963;28;20470;-67
2022/07/26 13:19:57;;;;;;;2.63;1.20;;;20.70;99.90;;;;;;5061241;28;20987;-67
2022/07/26 13:22:24;;;;;;;1.00;1.00;;;20.70;99.90;;;;;;5064297;28;20516;-68
2022/07/26 13:24:50;;;;;;;2.73;1.13;;;20.80;99.90;;;;;;5062541;28;20535;-67
2022/07/26 13:27:17;;;;;;;4.33;1.30;;;20.80;99.90;;;;;;5065621;28;20478;-68
2022/07/26 13:29:45;;;;;;;4.13;1.33;;;20.80;99.90;;;;;;5063113;28;20463;-68
2022/07/26 13:32:12;;;;;;;6.40;1.97;;;21.00;99.90;;;;;;5049564;28;20502;-67
2022/07/26 13:34:38;;;;;;;4.67;1.67;;;21.10;99.90;;;;;;5046346;28;20470;-69
2022/07/26 13:37:05;;;;;;;1.07;1.00;;;21.10;99.90;;;;;;5052451;28;20475;-67
2022/07/26 13:39:32;;;;;;;1.90;1.33;;;21.10;99.90;;;;;;5050200;28;20492;-67
2022/07/26 13:41:58;;;;;;;2.17;1.30;;;21.00;99.90;;;;;;5050388;28;20495;-68
2022/07/26 13:44:25;;;;;;;4.50;2.07;;;21.20;99.90;;;;;;5049657;28;20464;-67
2022/07/26 13:46:53;;;;;;;4.10;1.90;;;21.40;99.90;;;;;;5051678;28;20894;-68
2022/07/26 13:49:20;;;;;;;1.73;1.40;;;21.70;99.90;;;;;;5046245;28;20461;-68
2022/07/26 13:51:58;;;;;;;3.30;1.63;;;21.70;99.90;;;;;;5048545;28;20843;-68
2022/07/26 13:54:27;;;;;;;2.70;1.30;;;21.70;99.90;;;;;;5049850;28;20472;-68
2022/07/26 13:56:55;;;;;;;4.30;1.77;;;21.50;99.90;;;;;;5050312;28;20465;-68
2022/07/26 13:59:21;;;;;;;2.10;1.20;;;21.40;99.90;;;;;;5048116;28;20491;-67
2022/07/26 14:01:48;;;;;;;1.33;1.10;;;21.10;99.90;;;;;;5049318;28;21032;-68
2022/07/26 14:04:16;;;;;;;1.47;1.37;;;21.00;99.90;;;;;;5049944;28;20968;-68
2022/07/26 14:06:43;;;;;;;2.73;1.73;;;21.10;99.90;;;;;;5050991;28;20522;-68
2022/07/26 14:09:10;;;;;;;2.10;1.30;;;21.30;99.90;;;;;;5050563;28;20958;-68
2022/07/26 14:11:37;;;;;;;2.50;1.30;;;21.40;99.90;;;;;;5048785;28;20488;-68
2022/07/26 14:14:04;;;;;;;8.23;2.00;;;21.30;99.90;;;;;;5046140;28;20963;-68
2022/07/26 14:16:30;;;;;;;2.63;1.27;;;21.20;99.90;;;;;;5049702;28;20498;-68
2022/07/26 14:18:58;;;;;;;2.30;1.90;;;21.10;99.90;;;;;;5049512;28;20490;-68
2022/07/26 14:21:26;;;;;;;4.63;1.77;;;21.20;99.90;;;;;;5051761;28;20510;-68
2022/07/26 14:23:54;;;;;;;2.30;1.07;;;21.30;99.90;;;;;;5048748;28;20517;-68
2022/07/26 14:26:21;;;;;;;2.30;1.07;;;21.40;99.90;;;;;;5051350;28;20482;-68
2022/07/26 14:28:48;;;;;;;2.70;1.57;;;21.50;99.90;;;;;;5050633;28;20494;-68
2022/07/26 14:31:15;;;;;;;2.83;1.20;;;21.60;99.90;;;;;;5049472;28;20522;-68
2022/07/26 14:33:42;;;;;;;1.50;1.00;;;21.70;99.90;;;;;;5047763;28;20537;-68
2022/07/26 14:36:11;;;;;;;2.20;1.27;;;21.80;99.90;;;;;;5052163;28;20653;-68
2022/07/26 14:38:41;;;;;;;2.20;1.20;;;21.80;99.90;;;;;;5048615;28;20512;-68
2022/07/26 14:41:08;;;;;;;0.90;0.90;;;21.70;99.90;;;;;;5050520;28;20485;-69
2022/07/26 14:43:35;;;;;;;0.83;0.80;;;21.80;99.90;;;;;;5049502;28;20539;-68
2022/07/26 14:46:01;;;;;;;2.57;1.47;;;21.80;99.90;;;;;;5050869;28;20461;-68
2022/07/26 14:48:28;;;;;;;0.80;0.63;;;21.80;99.90;;;;;;5052358;28;20457;-69
2022/07/26 14:50:55;;;;;;;4.37;1.30;;;21.60;99.90;;;;;;5051628;28;20518;-68
2022/07/26 14:53:23;;;;;;;1.30;1.20;;;21.30;99.90;;;;;;5051300;28;20465;-68
2022/07/26 14:55:52;;;;;;;1.93;1.70;;;21.30;99.90;;;;;;5052509;28;20483;-68
2022/07/26 14:58:18;;;;;;;2.83;2.20;;;21.30;99.90;;;;;;5048421;28;20969;-67
2022/07/26 15:00:45;;;;;;;1.70;0.90;;;21.30;99.90;;;;;;5047941;28;20549;-68
2022/07/26 15:03:12;;;;;;;3.33;1.57;;;21.30;99.90;;;;;;5047766;28;20471;-67
2022/07/26 15:05:39;;;;;;;3.20;1.13;;;21.40;99.90;;;;;;5046468;28;20840;-67
2022/07/26 15:08:06;;;;;;;1.60;1.50;;;21.40;99.90;;;;;;5047472;28;20464;-68
2022/07/26 15:10:33;;;;;;;0.97;0.80;;;21.10;99.90;;;;;;5043739;28;20991;-68
2022/07/26 15:13:04;;;;;;;1.70;1.27;;;21.10;99.90;;;;;;5050835;28;20467;-68
2022/07/26 15:15:31;;;;;;;1.80;1.70;;;21.20;99.90;;;;;;5049346;28;20528;-67
2022/07/26 15:17:58;;;;;;;1.60;1.50;;;21.30;99.90;;;;;;5048276;28;20526;-67
2022/07/26 15:20:25;;;;;;;1.23;0.87;;;21.40;99.90;;;;;;5048437;28;20489;-67
2022/07/26 15:22:53;;;;;;;2.60;1.33;;;21.50;99.90;;;;;;5049510;28;20469;-68
2022/07/26 15:25:19;;;;;;;1.43;1.17;;;21.30;99.90;;;;;;5046381;28;20496;-67
2022/07/26 15:27:46;;;;;;;2.63;1.40;;;21.10;99.90;;;;;;5048378;28;20483;-67
2022/07/26 15:30:15;;;;;;;3.17;1.27;;;21.10;99.90;;;;;;5048816;28;20484;-67
2022/07/26 15:32:43;;;;;;;2.30;1.20;;;21.20;99.90;;;;;;5049178;28;20871;-67
2022/07/26 15:35:10;;;;;;;4.23;1.20;;;21.40;99.90;;;;;;5046837;28;20575;-67
2022/07/26 15:37:38;;;;;;;3.10;1.10;;;21.40;99.90;;;;;;5049445;28;20977;-68
2022/07/26 15:40:06;;;;;;;7.90;1.70;;;21.40;99.90;;;;;;5046659;28;20487;-68
2022/07/26 15:42:33;;;;;;;1.10;1.10;;;21.40;99.90;;;;;;5048311;28;20495;-67
2022/07/26 15:45:00;;;;;;;1.53;1.10;;;21.50;99.90;;;;;;5045206;28;20523;-68
2022/07/26 15:47:28;;;;;;;1.53;1.00;;;21.40;99.90;;;;;;5048176;28;20538;-67
2022/07/26 15:49:55;;;;;;;3.40;1.30;;;21.40;99.90;;;;;;5048250;28;20479;-69
2022/07/26 15:52:21;;;;;;;2.33;1.30;;;21.40;99.90;;;;;;5050076;28;20510;-68
2022/07/26 15:54:48;;;;;;;1.63;1.13;;;21.50;99.90;;;;;;5052525;28;20472;-69
2022/07/26 15:57:15;;;;;;;2.03;1.00;;;21.60;99.90;;;;;;5051309;28;20882;-68
2022/07/26 15:59:42;;;;;;;2.97;1.30;;;21.60;99.90;;;;;;5051964;28;20498;-68
2022/07/26 16:02:09;;;;;;;1.20;1.20;;;21.50;99.90;;;;;;5050726;28;20519;-68
2022/07/26 16:04:37;;;;;;;2.10;1.00;;;21.50;99.90;;;;;;5049117;28;20460;-68
2022/07/26 16:07:04;;;;;;;2.30;1.00;;;21.50;99.90;;;;;;5049110;28;20995;-68
2022/07/26 16:09:31;;;;;;;1.80;1.10;;;21.60;99.90;;;;;;5050756;28;20536;-68
2022/07/26 16:11:57;;;;;;;3.43;1.57;;;21.70;99.90;;;;;;5048781;28;20906;-68
2022/07/26 16:14:24;;;;;;;3.70;1.20;;;21.70;99.90;;;;;;5046813;28;20525;-68
2022/07/26 16:16:51;;;;;;;1.43;1.00;;;21.60;99.90;;;;;;5047873;28;20518;-68
2022/07/26 16:19:18;;;;;;;3.47;1.50;;;21.60;99.90;;;;;;5045651;28;20478;-68
2022/07/26 16:21:46;;;;;;;5.00;1.60;;;21.40;99.90;;;;;;5048705;28;20488;-66
2022/07/26 16:24:13;;;;;;;1.90;1.20;;;21.30;99.90;;;;;;5047340;28;20483;-68
2022/07/26 16:26:41;;;;;;;2.67;1.20;;;21.40;99.90;;;;;;5048634;28;20482;-68
2022/07/26 16:29:08;;;;;;;3.77;1.03;;;21.40;99.90;;;;;;5044771;28;20467;-67
2022/07/26 16:31:35;;;;;;;2.27;1.13;;;21.30;99.90;;;;;;5048134;28;20999;-66
2022/07/26 16:34:02;;;;;;;1.80;1.70;;;21.20;99.90;;;;;;5048161;28;20526;-68
2022/07/26 16:36:29;;;;;;;1.53;1.27;;;21.00;99.90;;;;;;5050068;28;20466;-67
2022/07/26 16:38:57;;;;;;;2.93;1.20;;;21.00;99.90;;;;;;5047531;28;20991;-68
2022/07/26 16:41:23;;;;;;;3.40;1.10;;;20.90;99.90;;;;;;5053402;28;20499;-67
2022/07/26 16:43:50;;;;;;;2.63;1.30;;;20.80;99.90;;;;;;5047003;28;20472;-67
2022/07/26 16:46:17;;;;;;;4.07;2.47;;;20.60;99.90;;;;;;5047862;28;20471;-68
2022/07/26 16:48:44;;;;;;;4.63;2.33;;;20.50;99.90;;;;;;5048744;28;20464;-68
2022/07/26 16:51:12;;;;;;;1.37;1.10;;;20.40;99.90;;;;;;5047045;28;20590;-67
2022/07/26 16:53:39;;;;;;;3.90;1.47;;;20.20;99.90;;;;;;5040959;28;20471;-67
2022/07/26 16:56:07;;;;;;;2.10;1.30;;;20.10;99.90;;;;;;5047259;28;21058;-68